Time;durP1;ratioP1;P1;durP2;ratioP2;P2;SDS_P1;SDS_P2;PMS_P1;PMS_P2;Temp;Humidity;BMP_temperature;BMP_pressure;BME280_temperature;BME280_humidity;BME280_pressure;Samples;Min_cycle;Max_cycle;Signal;HPM_P1;HPM_P2
2022/08/21 00:02:21;;;;;;;21.98;3.58;;;15.30;99.90;;;;;;5060259;28;20053;-81
2022/08/21 00:04:54;;;;;;;17.52;3.67;;;16.60;99.90;;;;;;5061889;28;20040;-78
2022/08/21 00:07:25;;;;;;;21.55;3.50;;;16.10;99.90;;;;;;5079312;28;20053;-80
2022/08/21 00:09:53;;;;;;;21.45;3.40;;;15.00;99.90;;;;;;5077992;28;20498;-79
2022/08/21 00:12:21;;;;;;;24.63;3.83;;;15.30;99.90;;;;;;5078982;28;20056;-80
2022/08/21 00:14:49;;;;;;;22.35;3.97;;;15.30;99.90;;;;;;5077832;28;20386;-80
2022/08/21 00:17:22;;;;;;;23.20;3.70;;;15.30;99.90;;;;;;5078735;28;20045;-80
2022/08/21 00:19:49;;;;;;;22.20;3.83;;;15.30;99.90;;;;;;5078887;28;20044;-78
2022/08/21 00:22:17;;;;;;;21.70;3.83;;;15.50;99.90;;;;;;5077841;28;20052;-80
2022/08/21 00:24:45;;;;;;;18.75;3.90;;;15.20;99.90;;;;;;5078748;28;20068;-81
2022/08/21 00:27:13;;;;;;;18.48;3.78;;;15.20;99.90;;;;;;5078720;28;20063;-79
2022/08/21 00:29:40;;;;;;;22.73;3.97;;;15.20;99.90;;;;;;5059542;28;20037;-80
2022/08/21 00:32:08;;;;;;;26.35;4.68;;;15.10;99.90;;;;;;5078550;28;20055;-78
2022/08/21 00:34:35;;;;;;;19.73;3.90;;;15.10;99.90;;;;;;5061481;28;20455;-82
2022/08/21 00:37:04;;;;;;;21.30;3.88;;;15.10;99.90;;;;;;5059872;28;20036;-81
2022/08/21 00:39:31;;;;;;;;;;;15.00;99.90;;;;;;5078869;28;20040;-78
2022/08/21 00:41:59;;;;;;;25.45;4.68;;;15.00;99.90;;;;;;5059852;28;19943;-80
2022/08/21 00:44:26;;;;;;;29.92;3.88;;;15.00;99.90;;;;;;5060823;28;20041;-81
2022/08/21 00:46:54;;;;;;;18.25;3.53;;;15.00;99.90;;;;;;5078268;28;20044;-78
2022/08/21 00:49:22;;;;;;;24.10;4.68;;;16.00;99.90;;;;;;5077223;28;20053;-81
2022/08/21 00:51:54;;;;;;;18.85;4.15;;;15.00;99.90;;;;;;5078719;28;20370;-80
2022/08/21 00:54:25;;;;;;;22.67;4.00;;;14.90;99.90;;;;;;5061680;28;20044;-80
2022/08/21 00:57:00;;;;;;;20.10;3.67;;;15.00;99.90;;;;;;5060207;28;20048;-79
2022/08/21 00:59:34;;;;;;;21.73;4.07;;;15.00;99.90;;;;;;5060989;28;20040;-81
2022/08/21 01:02:03;;;;;;;23.52;3.72;;;14.90;99.90;;;;;;5077173;28;20052;-81
2022/08/21 01:04:31;;;;;;;25.15;4.03;;;14.90;99.90;;;;;;5060509;28;20040;-79
2022/08/21 01:06:58;;;;;;;21.90;4.15;;;14.90;99.90;;;;;;5043736;28;20049;-79
2022/08/21 01:09:26;;;;;;;21.95;4.18;;;14.90;99.90;;;;;;5058901;28;20348;-78
2022/08/21 01:11:54;;;;;;;28.48;4.20;;;14.90;99.90;;;;;;5077839;28;20044;-81
2022/08/21 01:14:23;;;;;;;17.83;3.88;;;14.90;99.90;;;;;;5077609;28;20064;-80
2022/08/21 01:16:52;;;;;;;19.33;3.65;;;14.80;99.90;;;;;;5076603;28;20040;-77
2022/08/21 01:19:21;;;;;;;23.48;4.13;;;14.80;99.90;;;;;;5077574;28;20044;-79
2022/08/21 01:21:49;;;;;;;22.67;3.63;;;14.80;99.90;;;;;;5076333;28;20383;-80
2022/08/21 01:24:18;;;;;;;24.05;4.25;;;14.80;99.90;;;;;;5077923;28;20363;-78
2022/08/21 01:26:45;;;;;;;;;;;14.70;99.90;;;;;;5077789;28;20422;-77
2022/08/21 01:29:47;;;;;;;24.38;4.40;;;14.70;99.90;;;;;;5076276;28;19920;-81
2022/08/21 01:32:18;;;;;;;22.25;3.75;;;14.70;99.90;;;;;;5077173;28;20064;-79
2022/08/21 01:34:48;;;;;;;28.45;4.20;;;14.70;99.90;;;;;;5059481;28;20053;-80
2022/08/21 01:37:16;;;;;;;24.38;4.30;;;14.70;99.90;;;;;;5059902;28;20383;-78
2022/08/21 01:39:45;;;;;;;27.90;3.88;;;14.70;99.90;;;;;;5077395;28;20051;-80
2022/08/21 01:42:13;;;;;;;20.35;3.65;;;14.70;99.90;;;;;;5076236;28;20047;-78
2022/08/21 01:44:41;;;;;;;;;;;14.70;99.90;;;;;;5060002;28;20040;-79
2022/08/21 01:47:13;;;;;;;21.40;3.90;;;14.70;99.90;;;;;;5077232;28;19924;-77
2022/08/21 01:49:42;;;;;;;25.05;3.72;;;14.70;99.90;;;;;;5076139;28;20049;-79
2022/08/21 01:52:11;;;;;;;22.77;3.90;;;14.70;99.90;;;;;;5076845;28;20040;-78
2022/08/21 01:54:40;;;;;;;28.67;4.47;;;14.70;99.90;;;;;;5077096;28;20044;-80
2022/08/21 01:57:08;;;;;;;21.67;3.97;;;14.70;99.90;;;;;;5077043;28;20056;-81
2022/08/21 01:59:36;;;;;;;20.85;3.95;;;14.60;99.90;;;;;;5076848;28;20044;-81
2022/08/21 02:02:05;;;;;;;19.92;3.90;;;14.60;99.90;;;;;;5075803;28;20051;-82
2022/08/21 02:04:33;;;;;;;30.05;4.28;;;14.60;99.90;;;;;;5076818;28;20044;-81
2022/08/21 02:07:01;;;;;;;26.02;4.25;;;14.60;99.90;;;;;;5076780;28;20045;-81
2022/08/21 02:09:29;;;;;;;22.25;4.15;;;14.60;99.90;;;;;;5041259;28;20060;-78
2022/08/21 02:11:57;;;;;;;26.67;4.63;;;14.60;99.90;;;;;;5076635;28;20080;-81
2022/08/21 02:14:25;;;;;;;26.05;4.00;;;14.60;99.90;;;;;;5059685;28;20044;-79
2022/08/21 02:16:59;;;;;;;25.17;4.22;;;14.60;99.90;;;;;;5057643;28;20033;-79
2022/08/21 02:19:37;;;;;;;20.53;3.80;;;14.60;99.90;;;;;;5076419;28;20040;-82
2022/08/21 02:22:09;;;;;;;26.73;4.00;;;14.60;99.90;;;;;;5074515;28;20278;-79
2022/08/21 02:24:37;;;;;;;23.40;3.80;;;14.60;99.90;;;;;;5076047;28;20059;-80
2022/08/21 02:27:24;;;;;;;37.83;4.72;;;14.60;99.90;;;;;;5076489;28;20049;-78
2022/08/21 02:29:56;;;;;;;27.52;4.60;;;14.50;99.90;;;;;;5074956;28;20049;-81
2022/08/21 02:32:25;;;;;;;21.92;3.72;;;14.60;99.90;;;;;;5076104;28;20044;-80
2022/08/21 02:34:53;;;;;;;25.00;3.85;;;14.50;99.90;;;;;;5074805;28;20049;-80
2022/08/21 02:37:22;;;;;;;26.80;4.18;;;14.50;99.90;;;;;;5058581;28;20052;-82
2022/08/21 02:39:50;;;;;;;27.50;4.28;;;14.50;99.90;;;;;;5076163;28;20463;-79
2022/08/21 02:42:18;;;;;;;26.45;4.50;;;14.60;99.90;;;;;;5057171;28;20490;-79
2022/08/21 02:44:45;;;;;;;17.60;3.70;;;14.50;99.90;;;;;;5076049;28;20051;-79
2022/08/21 02:47:14;;;;;;;31.08;3.90;;;14.50;99.90;;;;;;5075717;28;20475;-81
2022/08/21 02:49:41;;;;;;;20.15;3.78;;;14.50;99.90;;;;;;5057167;28;20048;-81
2022/08/21 02:52:09;;;;;;;27.38;4.35;;;14.50;99.90;;;;;;5076149;28;20044;-77
2022/08/21 02:54:36;;;;;;;21.17;3.95;;;14.00;99.90;;;;;;5076064;28;20051;-79
2022/08/21 02:57:04;;;;;;;19.67;3.85;;;14.60;99.90;;;;;;5057206;28;20456;-76
2022/08/21 02:59:31;;;;;;;25.60;4.07;;;14.60;99.90;;;;;;5075611;28;20036;-79
2022/08/21 03:01:59;;;;;;;27.25;4.45;;;14.60;99.90;;;;;;5074449;28;20044;-80
2022/08/21 03:04:27;;;;;;;26.67;4.00;;;14.60;99.90;;;;;;5042056;28;20040;-78
2022/08/21 03:06:54;;;;;;;26.05;4.28;;;14.60;99.90;;;;;;5058374;28;20055;-78
2022/08/21 03:09:22;;;;;;;25.90;4.05;;;14.60;99.90;;;;;;5074582;28;20044;-79
2022/08/21 03:11:51;;;;;;;17.17;3.75;;;14.60;99.90;;;;;;5075504;28;20063;-80
2022/08/21 03:14:19;;;;;;;25.48;4.20;;;14.50;99.90;;;;;;5057902;28;20375;-80
2022/08/21 03:16:46;;;;;;;24.58;4.07;;;14.50;99.90;;;;;;5056387;28;20044;-80
2022/08/21 03:19:14;;;;;;;19.25;4.13;;;15.20;99.90;;;;;;5075618;28;20048;-80
2022/08/21 03:21:44;;;;;;;23.67;3.88;;;14.50;99.90;;;;;;5074562;28;20040;-81
2022/08/21 03:24:12;;;;;;;26.95;4.45;;;14.40;99.90;;;;;;5075742;28;20051;-77
2022/08/21 03:26:40;;;;;;;26.77;3.88;;;13.80;99.90;;;;;;5075286;28;20056;-80
2022/08/21 03:29:07;;;;;;;26.88;3.67;;;14.40;99.90;;;;;;5074274;28;20052;-77
2022/08/21 03:31:35;;;;;;;22.17;3.70;;;14.40;99.90;;;;;;5074927;28;20463;-79
2022/08/21 03:34:03;;;;;;;23.10;3.97;;;14.30;99.90;;;;;;5057180;28;20052;-79
2022/08/21 03:36:30;;;;;;;25.15;4.30;;;14.30;99.90;;;;;;5040409;28;20075;-80
2022/08/21 03:38:58;;;;;;;24.90;4.30;;;14.30;99.90;;;;;;5057829;28;20052;-78
2022/08/21 03:41:25;;;;;;;24.63;4.32;;;14.30;99.90;;;;;;5057117;28;20383;-82
2022/08/21 03:43:53;;;;;;;29.95;4.20;;;14.20;99.90;;;;;;5075311;28;20049;-79
2022/08/21 03:46:21;;;;;;;20.77;4.45;;;14.20;99.90;;;;;;5075592;28;20371;-78
2022/08/21 03:48:49;;;;;;;27.00;4.18;;;14.20;99.90;;;;;;5074203;28;20150;-79
2022/08/21 03:51:16;;;;;;;25.27;3.80;;;14.20;99.90;;;;;;5075296;28;20044;-81
2022/08/21 03:53:44;;;;;;;25.85;3.88;;;14.20;99.90;;;;;;5075072;28;20452;-79
2022/08/21 03:56:12;;;;;;;34.40;4.72;;;14.20;99.90;;;;;;5073868;28;20059;-80
2022/08/21 03:58:40;;;;;;;25.75;4.30;;;14.30;99.90;;;;;;5075045;28;20048;-82
2022/08/21 04:01:08;;;;;;;20.88;3.90;;;14.30;99.90;;;;;;5075325;28;20040;-81
2022/08/21 04:03:37;;;;;;;24.17;4.18;;;14.20;99.90;;;;;;5073809;28;20049;-79
2022/08/21 04:06:05;;;;;;;27.55;4.28;;;14.20;99.90;;;;;;5074970;28;20344;-79
2022/08/21 04:08:33;;;;;;;;;;;14.20;99.90;;;;;;5056374;28;20048;-80
2022/08/21 04:11:01;;;;;;;19.70;3.63;;;14.20;99.90;;;;;;5075132;28;19921;-79
2022/08/21 04:13:29;;;;;;;21.33;3.72;;;14.10;99.90;;;;;;5074787;28;20051;-78
2022/08/21 04:15:58;;;;;;;23.70;3.83;;;14.10;99.90;;;;;;5074208;28;20048;-77
2022/08/21 04:18:25;;;;;;;24.90;4.18;;;14.10;99.90;;;;;;5074863;28;20056;-79
2022/08/21 04:20:55;;;;;;;24.23;4.03;;;13.10;99.90;;;;;;5074478;28;20044;-80
2022/08/21 04:23:25;;;;;;;23.20;3.97;;;14.00;99.90;;;;;;5073806;28;20049;-80
2022/08/21 04:25:56;;;;;;;27.58;4.28;;;12.70;99.90;;;;;;5074603;28;20056;-81
2022/08/21 04:28:26;;;;;;;30.95;4.40;;;14.00;99.90;;;;;;5073770;28;20375;-81
2022/08/21 04:30:57;;;;;;;20.67;4.00;;;14.00;99.90;;;;;;5057767;28;20052;-79
2022/08/21 04:33:25;;;;;;;;;;;13.90;99.90;;;;;;5074861;28;20060;-78
2022/08/21 04:35:53;;;;;;;26.63;4.10;;;13.90;99.90;;;;;;5056465;28;19920;-79
2022/08/21 04:38:20;;;;;;;;;;;13.90;99.90;;;;;;5074986;28;20482;-78
2022/08/21 04:40:49;;;;;;;24.27;3.88;;;13.90;99.90;;;;;;5074571;28;19921;-77
2022/08/21 04:43:18;;;;;;;27.23;4.47;;;13.90;99.90;;;;;;5073831;28;20049;-78
2022/08/21 04:45:47;;;;;;;23.83;4.13;;;13.80;99.90;;;;;;5061046;28;20049;-79
2022/08/21 04:48:18;;;;;;;28.10;4.43;;;13.90;99.90;;;;;;5077332;28;20055;-81
2022/08/21 04:51:00;;;;;;;28.33;4.13;;;13.80;99.90;;;;;;5078106;28;20048;-81
2022/08/21 04:53:36;;;;;;;20.30;3.97;;;13.80;99.90;;;;;;5078569;28;20063;-78
2022/08/21 04:56:11;;;;;;;27.50;4.47;;;13.80;99.90;;;;;;5077014;28;20048;-77
2022/08/21 04:58:41;;;;;;;19.98;4.15;;;13.80;99.90;;;;;;5077777;28;20131;-82
2022/08/21 05:01:15;;;;;;;25.38;4.10;;;13.80;99.90;;;;;;5060569;28;20049;-79
2022/08/21 05:03:44;;;;;;;30.10;4.60;;;13.70;99.90;;;;;;5076780;28;20040;-80
2022/08/21 05:06:14;;;;;;;22.67;4.28;;;13.70;99.90;;;;;;5077739;28;20371;-80
2022/08/21 05:08:44;;;;;;;21.50;3.90;;;13.70;99.90;;;;;;5059138;28;20061;-78
2022/08/21 05:11:13;;;;;;;26.92;4.28;;;13.70;99.90;;;;;;5043657;28;20048;-81
2022/08/21 05:13:41;;;;;;;;;;;13.70;99.90;;;;;;5060884;28;20048;-78
2022/08/21 05:16:09;;;;;;;26.35;4.10;;;13.70;99.90;;;;;;5076754;28;19927;-82
2022/08/21 05:18:37;;;;;;;30.05;4.90;;;13.60;99.90;;;;;;5060532;28;20056;-79
2022/08/21 05:21:05;;;;;;;20.58;3.97;;;13.60;99.90;;;;;;5077695;28;20049;-81
2022/08/21 05:23:32;;;;;;;25.25;3.97;;;13.60;99.90;;;;;;5058992;28;20045;-82
2022/08/21 05:26:00;;;;;;;26.85;4.82;;;13.60;99.90;;;;;;5077280;28;20371;-78
2022/08/21 05:28:28;;;;;;;24.75;4.32;;;13.60;99.90;;;;;;5076471;28;20063;-78
2022/08/21 05:30:56;;;;;;;29.25;4.22;;;13.70;99.90;;;;;;5059657;28;20475;-80
2022/08/21 05:33:24;;;;;;;27.08;4.95;;;13.80;99.90;;;;;;5059849;28;20060;-81
2022/08/21 05:35:55;;;;;;;25.15;4.38;;;13.80;99.90;;;;;;5075938;28;20063;-78
2022/08/21 05:38:24;;;;;;;21.75;3.90;;;13.90;99.90;;;;;;5076887;28;20483;-79
2022/08/21 05:40:53;;;;;;;23.17;4.25;;;14.10;99.90;;;;;;5077038;28;20047;-80
2022/08/21 05:43:20;;;;;;;;;;;14.10;99.90;;;;;;5076487;28;20041;-82
2022/08/21 05:45:48;;;;;;;21.67;3.92;;;14.30;99.90;;;;;;5043204;28;19934;-78
2022/08/21 05:48:24;;;;;;;18.48;4.15;;;14.40;99.90;;;;;;5075908;28;20052;-80
2022/08/21 05:50:52;;;;;;;20.38;4.13;;;14.40;99.90;;;;;;5059740;28;20044;-78
2022/08/21 05:53:24;;;;;;;22.65;3.88;;;14.60;99.90;;;;;;5076841;28;20359;-79
2022/08/21 05:55:52;;;;;;;26.35;4.15;;;14.60;99.90;;;;;;5074736;28;20040;-78
2022/08/21 05:58:22;;;;;;;21.15;3.53;;;14.70;99.90;;;;;;5076373;28;20052;-79
2022/08/21 06:00:51;;;;;;;21.60;3.80;;;14.80;99.90;;;;;;5076522;28;20462;-76
2022/08/21 06:03:25;;;;;;;21.95;3.78;;;14.90;99.90;;;;;;5057581;28;20067;-77
2022/08/21 06:05:54;;;;;;;29.17;4.05;;;15.00;99.90;;;;;;5059514;28;20056;-78
2022/08/21 06:08:23;;;;;;;20.27;3.85;;;15.10;99.90;;;;;;5057972;28;20328;-78
2022/08/21 06:10:52;;;;;;;21.27;3.60;;;15.20;99.90;;;;;;5059181;28;20052;-79
2022/08/21 06:13:22;;;;;;;20.52;3.80;;;15.50;99.90;;;;;;5076094;28;20055;-79
2022/08/21 06:16:00;;;;;;;21.42;3.78;;;15.30;99.90;;;;;;5074986;28;20451;-79
2022/08/21 06:18:27;;;;;;;;;;;15.40;99.90;;;;;;5076848;28;20363;-77
2022/08/21 06:20:55;;;;;;;23.00;3.25;;;15.40;99.90;;;;;;5075986;28;19920;-79
2022/08/21 06:23:24;;;;;;;19.67;3.80;;;15.40;99.90;;;;;;5075007;28;20041;-78
2022/08/21 06:26:04;;;;;;;20.33;3.65;;;15.40;99.90;;;;;;5058315;28;20071;-78
2022/08/21 06:28:32;;;;;;;21.90;3.70;;;15.40;99.90;;;;;;5075563;28;20049;-78
2022/08/21 06:31:00;;;;;;;19.90;3.20;;;15.40;99.90;;;;;;5076099;28;20063;-76
2022/08/21 06:33:28;;;;;;;21.52;3.92;;;15.50;99.90;;;;;;5075756;28;20051;-76
2022/08/21 06:35:59;;;;;;;19.33;3.45;;;15.50;99.90;;;;;;5074758;28;20040;-79
2022/08/21 06:38:27;;;;;;;18.17;3.40;;;15.50;99.90;;;;;;5058120;28;20047;-77
2022/08/21 06:40:55;;;;;;;25.00;4.10;;;15.60;99.90;;;;;;5076214;28;20055;-79
2022/08/21 06:43:24;;;;;;;21.63;4.05;;;15.70;99.90;;;;;;5074387;28;20466;-76
2022/08/21 06:46:07;;;;;;;19.80;4.30;;;15.80;99.90;;;;;;5075624;28;20051;-78
2022/08/21 06:48:35;;;;;;;21.80;4.10;;;15.90;99.90;;;;;;5074363;28;20048;-79
2022/08/21 06:51:03;;;;;;;16.40;3.65;;;16.00;99.90;;;;;;5075228;28;20044;-79
2022/08/21 06:53:31;;;;;;;21.77;4.03;;;16.10;99.90;;;;;;5041300;28;20059;-79
2022/08/21 06:55:58;;;;;;;20.88;4.15;;;16.20;99.90;;;;;;5074441;28;20478;-76
2022/08/21 06:58:26;;;;;;;18.27;3.85;;;16.30;99.90;;;;;;5075437;28;20051;-76
2022/08/21 07:00:54;;;;;;;26.15;4.13;;;16.40;99.90;;;;;;5075356;28;20044;-76
2022/08/21 07:03:30;;;;;;;22.10;4.10;;;16.40;99.90;;;;;;5074336;28;20360;-76
2022/08/21 07:05:58;;;;;;;20.10;3.97;;;16.50;99.90;;;;;;5058002;28;20052;-79
2022/08/21 07:08:27;;;;;;;20.85;3.97;;;16.60;99.90;;;;;;5056856;28;20051;-79
2022/08/21 07:10:57;;;;;;;22.23;3.95;;;16.70;99.90;;;;;;5057568;28;20048;-76
2022/08/21 07:13:25;;;;;;;18.02;3.45;;;16.80;99.90;;;;;;5074984;28;20041;-77
2022/08/21 07:15:53;;;;;;;23.98;3.97;;;17.30;99.90;;;;;;5056586;28;20041;-79
2022/08/21 07:18:20;;;;;;;16.60;3.58;;;17.10;99.90;;;;;;5074362;28;20048;-79
2022/08/21 07:20:48;;;;;;;16.63;3.80;;;17.20;99.90;;;;;;5057372;28;20463;-79
2022/08/21 07:23:26;;;;;;;;;;;17.40;99.90;;;;;;5056612;28;20045;-79
2022/08/21 07:25:54;;;;;;;19.15;3.58;;;17.60;99.90;;;;;;5074561;28;19920;-78
2022/08/21 07:28:21;;;;;;;;;;;17.70;99.90;;;;;;5056453;28;20300;-79
2022/08/21 07:30:54;;;;;;;20.05;3.80;;;17.80;99.90;;;;;;5074263;28;19924;-77
2022/08/21 07:33:23;;;;;;;19.95;3.63;;;18.00;99.90;;;;;;5074390;28;20048;-77
2022/08/21 07:35:50;;;;;;;17.83;3.35;;;18.10;99.90;;;;;;5073299;28;20475;-78
2022/08/21 07:38:18;;;;;;;18.58;3.20;;;18.20;99.90;;;;;;5074482;28;20072;-77
2022/08/21 07:40:47;;;;;;;;;;;18.30;99.70;;;;;;5074865;28;20052;-78
2022/08/21 07:43:18;;;;;;;17.77;3.47;;;18.40;97.70;;;;;;5073263;28;19920;-77
2022/08/21 07:45:49;;;;;;;12.07;3.10;;;18.50;98.80;;;;;;5074707;28;20501;-78
2022/08/21 07:48:16;;;;;;;13.55;3.00;;;18.60;98.90;;;;;;5073098;28;20041;-78
2022/08/21 07:50:44;;;;;;;18.65;3.22;;;18.70;97.90;;;;;;5074303;28;20048;-81
2022/08/21 07:53:14;;;;;;;15.93;3.03;;;18.80;97.40;;;;;;5074400;28;20379;-77
2022/08/21 07:55:42;;;;;;;12.70;2.67;;;18.90;97.10;;;;;;5073209;28;20056;-78
2022/08/21 07:58:10;;;;;;;17.25;3.00;;;18.90;96.30;;;;;;5057435;28;20044;-80
2022/08/21 08:00:37;;;;;;;12.93;2.45;;;19.00;96.10;;;;;;5057046;28;20040;-78
2022/08/21 08:03:05;;;;;;;15.07;2.70;;;19.10;95.70;;;;;;5039387;28;20060;-79
2022/08/21 08:05:37;;;;;;;12.73;2.75;;;19.20;95.20;;;;;;5074536;28;20059;-81
2022/08/21 08:08:04;;;;;;;17.85;3.08;;;19.30;95.00;;;;;;5073215;28;20048;-81
2022/08/21 08:10:32;;;;;;;16.60;3.13;;;19.40;95.10;;;;;;5074383;28;20040;-78
2022/08/21 08:13:01;;;;;;;16.05;2.80;;;19.50;94.60;;;;;;5074655;28;20052;-76
2022/08/21 08:15:28;;;;;;;12.52;2.50;;;19.60;94.30;;;;;;5056092;28;20053;-79
2022/08/21 08:18:04;;;;;;;14.32;2.45;;;19.60;93.70;;;;;;5057510;28;20056;-81
2022/08/21 08:20:31;;;;;;;14.13;2.97;;;19.70;93.60;;;;;;5078465;28;20451;-77
2022/08/21 08:22:59;;;;;;;15.48;2.85;;;19.00;93.00;;;;;;5077398;28;20048;-77
2022/08/21 08:25:27;;;;;;;;;;;19.80;93.20;;;;;;5078894;28;20051;-77
2022/08/21 08:28:05;;;;;;;16.77;2.78;;;19.60;91.60;;;;;;5077404;28;20445;-78
2022/08/21 08:30:53;;;;;;;19.55;2.92;;;19.90;92.40;;;;;;5078078;28;20056;-79
2022/08/21 08:33:20;;;;;;;15.95;2.65;;;19.80;91.50;;;;;;5077901;28;20063;-80
2022/08/21 08:35:51;;;;;;;15.18;2.95;;;19.80;92.00;;;;;;5043282;28;20064;-80
2022/08/21 08:38:21;;;;;;;13.57;2.75;;;19.90;91.70;;;;;;5060306;28;20048;-79
2022/08/21 08:41:12;;;;;;;14.55;3.03;;;19.80;91.30;;;;;;5060595;28;20063;-80
2022/08/21 08:43:46;;;;;;;16.45;2.88;;;19.90;90.70;;;;;;5076777;28;20063;-79
2022/08/21 08:46:25;;;;;;;18.27;2.83;;;19.90;90.70;;;;;;5077901;28;20060;-78
2022/08/21 08:49:22;;;;;;;14.20;2.47;;;20.00;90.20;;;;;;5076666;28;20044;-75
2022/08/21 08:51:59;;;;;;;13.70;2.47;;;20.10;90.30;;;;;;5040162;28;20045;-77
2022/08/21 08:54:27;;;;;;;11.00;2.50;;;20.10;90.20;;;;;;5077718;28;20045;-78
2022/08/21 08:56:55;;;;;;;16.88;2.85;;;20.20;90.20;;;;;;5076567;28;20041;-75
2022/08/21 08:59:32;;;;;;;13.63;2.75;;;20.20;90.00;;;;;;5043763;28;20051;-80
2022/08/21 09:02:59;;;;;;;12.52;2.65;;;20.20;88.20;;;;;;5058797;28;20072;-83
2022/08/21 09:05:47;;;;;;;12.35;2.83;;;21.60;88.30;;;;;;5061856;28;20482;-83
2022/08/21 09:08:49;;;;;;;12.18;2.53;;;20.60;90.30;;;;;;5042604;28;20055;-78
2022/08/21 09:11:44;;;;;;;13.35;2.28;;;20.50;87.60;;;;;;5060202;28;20375;-79
2022/08/21 09:14:34;;;;;;;10.98;2.38;;;20.90;86.60;;;;;;5077642;28;20056;-77
2022/08/21 09:17:30;;;;;;;12.95;2.58;;;20.40;85.80;;;;;;5076060;28;20056;-75
2022/08/21 09:20:10;;;;;;;14.32;2.45;;;20.50;84.60;;;;;;5077352;28;20040;-77
2022/08/21 09:23:39;;;;;;;16.02;2.10;;;20.50;85.50;;;;;;5076144;28;20060;-77
2022/08/21 09:26:20;;;;;;;14.18;2.45;;;20.50;83.10;;;;;;5015744;28;20461;-74
2022/08/21 09:29:06;;;;;;;11.32;2.47;;;20.60;84.40;;;;;;5014641;28;20061;-80
2022/08/21 09:31:39;;;;;;;8.82;1.92;;;20.60;81.90;;;;;;5042153;28;20068;-74
2022/08/21 09:34:13;;;;;;;8.55;2.22;;;20.60;83.70;;;;;;5077338;28;20482;-74
2022/08/21 09:36:50;;;;;;;11.73;2.20;;;20.70;82.80;;;;;;5075921;28;20045;-77
2022/08/21 09:39:37;;;;;;;8.43;1.98;;;20.80;81.10;;;;;;5076949;28;20048;-78
2022/08/21 09:42:09;;;;;;;11.85;2.20;;;20.90;80.20;;;;;;5075836;28;20049;-77
2022/08/21 09:44:43;;;;;;;11.93;2.10;;;21.10;80.90;;;;;;5060044;28;20459;-80
2022/08/21 09:47:14;;;;;;;9.75;2.40;;;21.20;78.80;;;;;;5077500;28;20463;-77
2022/08/21 09:49:43;;;;;;;10.18;2.22;;;21.00;79.70;;;;;;5075469;28;20052;-81
2022/08/21 09:52:21;;;;;;;14.15;2.08;;;20.90;80.20;;;;;;5075126;28;20056;-82
2022/08/21 09:54:55;;;;;;;9.23;2.17;;;20.90;78.90;;;;;;5050286;28;20040;-74
2022/08/21 09:57:47;;;;;;;8.70;2.30;;;20.80;79.80;;;;;;5042678;28;20052;-82
2022/08/21 10:00:45;;;;;;;12.02;2.53;;;20.70;80.90;;;;;;5052895;28;20052;-79
2022/08/21 10:03:18;;;;;;;15.23;2.60;;;20.90;80.90;;;;;;5068118;28;20367;-79
2022/08/21 10:05:57;;;;;;;14.63;2.47;;;21.10;80.50;;;;;;5056580;28;20045;-81
2022/08/21 10:08:28;;;;;;;12.80;2.55;;;21.00;79.50;;;;;;5056642;28;20045;-75
2022/08/21 10:11:12;;;;;;;10.85;2.25;;;21.10;78.50;;;;;;5047121;28;20041;-82
2022/08/21 10:14:14;;;;;;;13.50;3.03;;;21.10;78.50;;;;;;5055738;28;20045;-80
2022/08/21 10:17:12;;;;;;;13.18;2.35;;;21.20;78.20;;;;;;5001372;28;20059;-77
2022/08/21 10:20:02;;;;;;;10.57;2.53;;;21.30;78.00;;;;;;5021373;28;20052;-77
2022/08/21 10:23:11;;;;;;;11.20;2.30;;;21.50;78.30;;;;;;5054739;28;20387;-80
2022/08/21 10:26:14;;;;;;;11.90;2.50;;;20.90;77.10;;;;;;5022668;28;20387;-77
2022/08/21 10:29:00;;;;;;;13.18;2.40;;;21.80;77.70;;;;;;5008527;28;20057;-79
2022/08/21 10:31:36;;;;;;;10.05;2.30;;;21.80;76.10;;;;;;5020282;28;20068;-79
2022/08/21 10:34:16;;;;;;;12.10;2.30;;;22.10;73.90;;;;;;5037523;28;20132;-77
2022/08/21 10:37:01;;;;;;;9.38;2.30;;;21.90;76.50;;;;;;5033890;28;20060;-77
2022/08/21 10:40:01;;;;;;;11.77;2.17;;;22.20;74.20;;;;;;5048887;28;20361;-77
2022/08/21 10:42:46;;;;;;;8.75;2.40;;;22.60;73.20;;;;;;5033668;28;20460;-77
2022/08/21 10:45:29;;;;;;;9.23;2.13;;;23.00;73.00;;;;;;5035345;28;20045;-81
2022/08/21 10:48:12;;;;;;;9.90;2.17;;;23.70;72.50;;;;;;5034574;28;20042;-80
2022/08/21 10:50:51;;;;;;;7.80;2.03;;;23.70;71.80;;;;;;5034804;28;20049;-79
2022/08/21 10:53:44;;;;;;;7.68;2.20;;;24.20;69.50;;;;;;5035890;28;20049;-78
2022/08/21 10:56:21;;;;;;;10.80;2.35;;;24.30;68.90;;;;;;5020431;28;20048;-80
2022/08/21 10:59:22;;;;;;;10.15;2.53;;;24.70;71.00;;;;;;5023031;28;20057;-78
2022/08/21 11:01:57;;;;;;;8.10;2.15;;;24.60;67.10;;;;;;5038892;28;20060;-81
2022/08/21 11:04:26;;;;;;;11.02;2.45;;;24.80;68.20;;;;;;5056147;28;20041;-82
2022/08/21 11:07:29;;;;;;;9.02;2.45;;;24.90;68.40;;;;;;5007708;28;20479;-82
2022/08/21 11:10:25;;;;;;;9.30;2.50;;;25.00;67.50;;;;;;5054017;28;20045;-80
2022/08/21 11:13:14;;;;;;;10.55;2.38;;;26.50;70.50;;;;;;5055066;28;20048;-81
2022/08/21 11:15:45;;;;;;;12.30;2.40;;;25.20;65.80;;;;;;5054013;28;20383;-78
2022/08/21 11:18:34;;;;;;;11.27;2.42;;;25.20;67.30;;;;;;5054891;28;20045;-78
2022/08/21 11:21:45;;;;;;;8.95;2.65;;;25.30;65.40;;;;;;5052624;28;20045;-79
2022/08/21 11:24:30;;;;;;;12.52;2.65;;;25.20;66.00;;;;;;5038093;28;20479;-79
2022/08/21 11:27:08;;;;;;;9.90;2.53;;;25.30;67.10;;;;;;5055045;28;20036;-73
2022/08/21 11:29:39;;;;;;;11.27;2.65;;;25.30;66.50;;;;;;5053951;28;20045;-73
2022/08/21 11:32:12;;;;;;;16.63;2.50;;;25.40;67.60;;;;;;5054164;28;20041;-73
2022/08/21 11:35:22;;;;;;;12.70;2.83;;;25.50;68.20;;;;;;5055087;28;20044;-73
2022/08/21 11:38:20;;;;;;;14.60;3.20;;;25.40;65.10;;;;;;4974405;28;20406;-73
2022/08/21 11:40:50;;;;;;;15.45;2.65;;;25.10;65.40;;;;;;5054473;28;20056;-72
2022/08/21 11:43:44;;;;;;;10.98;2.75;;;25.00;66.40;;;;;;5052819;28;20049;-72
2022/08/21 11:46:33;;;;;;;11.40;3.00;;;24.90;65.70;;;;;;5050006;28;20041;-74
2022/08/21 11:49:15;;;;;;;13.10;2.97;;;23.20;65.40;;;;;;5051414;28;20100;-73
2022/08/21 11:52:11;;;;;;;11.38;2.70;;;24.70;66.30;;;;;;5049180;28;20061;-74
2022/08/21 11:54:47;;;;;;;15.18;3.42;;;24.60;66.40;;;;;;5033892;28;20058;-75
2022/08/21 11:57:44;;;;;;;10.38;2.65;;;24.50;67.20;;;;;;5034650;28;20049;-73
2022/08/21 12:00:25;;;;;;;12.23;2.70;;;24.40;66.70;;;;;;5034355;28;20041;-75
2022/08/21 12:02:58;;;;;;;12.85;2.33;;;24.40;67.20;;;;;;5033635;28;20452;-75
2022/08/21 12:05:34;;;;;;;10.48;2.90;;;24.20;67.50;;;;;;5052766;28;20056;-75
2022/08/21 12:08:07;;;;;;;11.75;1.98;;;24.10;67.10;;;;;;5053350;28;20444;-72
2022/08/21 12:10:42;;;;;;;14.00;2.97;;;24.50;67.10;;;;;;5051817;28;20049;-72
2022/08/21 12:13:22;;;;;;;16.27;2.58;;;24.20;66.40;;;;;;5053606;28;20045;-72
2022/08/21 12:16:07;;;;;;;10.35;2.70;;;24.30;67.10;;;;;;5053220;28;20037;-72
2022/08/21 12:18:37;;;;;;;10.38;2.45;;;24.60;67.50;;;;;;5054269;28;20045;-72
2022/08/21 12:21:18;;;;;;;13.43;3.70;;;24.70;67.20;;;;;;5053763;28;20049;-72
2022/08/21 12:24:16;;;;;;;10.32;2.65;;;24.80;66.80;;;;;;5053366;28;20368;-73
2022/08/21 12:26:51;;;;;;;7.35;2.20;;;24.90;65.10;;;;;;5036613;28;20452;-72
2022/08/21 12:29:29;;;;;;;8.52;2.33;;;25.00;65.50;;;;;;5053154;28;20041;-72
2022/08/21 12:32:00;;;;;;;9.88;2.42;;;25.00;65.60;;;;;;5071566;28;20053;-72
2022/08/21 12:34:50;;;;;;;11.38;2.50;;;25.00;65.10;;;;;;5056072;28;20056;-72
2022/08/21 12:37:40;;;;;;;10.27;2.70;;;25.00;64.40;;;;;;5073255;28;20056;-72
2022/08/21 12:40:23;;;;;;;8.60;2.28;;;25.10;64.30;;;;;;5074445;28;20336;-74
2022/08/21 12:42:55;;;;;;;8.63;2.47;;;25.00;65.00;;;;;;5039115;28;20045;-78
2022/08/21 12:45:53;;;;;;;9.27;2.47;;;25.10;65.70;;;;;;5074308;28;20049;-77
2022/08/21 12:48:46;;;;;;;12.85;2.70;;;25.60;66.80;;;;;;5054717;28;20048;-74
2022/08/21 12:51:23;;;;;;;13.20;2.42;;;24.10;65.10;;;;;;5017280;28;20106;-77
2022/08/21 12:53:58;;;;;;;9.77;2.65;;;25.50;65.50;;;;;;5057216;28;20051;-75
2022/08/21 12:56:29;;;;;;;10.38;2.35;;;25.50;66.10;;;;;;5072817;28;20052;-76
2022/08/21 12:59:13;;;;;;;12.20;3.50;;;26.00;66.00;;;;;;5074156;28;20041;-77
2022/08/21 13:01:58;;;;;;;8.77;2.38;;;25.60;67.80;;;;;;5055080;28;20060;-78
2022/08/21 13:04:39;;;;;;;10.65;2.75;;;25.70;66.00;;;;;;5075139;28;20048;-79
2022/08/21 13:07:14;;;;;;;13.48;3.10;;;25.80;65.10;;;;;;5044140;28;20051;-78
2022/08/21 13:09:57;;;;;;;;;;;25.80;65.20;;;;;;5059135;28;20049;-77
2022/08/21 13:12:26;;;;;;;10.82;2.90;;;25.80;64.20;;;;;;5043227;28;20339;-76
2022/08/21 13:15:03;;;;;;;15.85;3.25;;;25.80;65.10;;;;;;5076618;28;20041;-75
2022/08/21 13:17:40;;;;;;;10.43;2.80;;;25.90;64.80;;;;;;5077575;28;20048;-74